Time;durP1;ratioP1;P1;durP2;ratioP2;P2;SDS_P1;SDS_P2;PMS_P1;PMS_P2;Temp;Humidity;BMP_temperature;BMP_pressure;BME280_temperature;BME280_humidity;BME280_pressure;Samples;Min_cycle;Max_cycle;Signal;HPM_P1;HPM_P2
2023/04/14 00:01:48;;;;;;;8.68;3.45;;;6.40;99.90;;;;;;6096311;23;93023;-78
2023/04/14 00:04:16;;;;;;;10.48;3.72;;;6.40;99.90;;;;;;6095896;23;92419;-78
2023/04/14 00:06:43;;;;;;;8.48;3.78;;;6.40;99.90;;;;;;6069432;23;92505;-78
2023/04/14 00:09:10;;;;;;;9.48;3.88;;;6.40;99.90;;;;;;6094177;23;95479;-78
2023/04/14 00:11:37;;;;;;;5.50;3.20;;;6.30;99.90;;;;;;6045107;23;98306;-78
2023/04/14 00:14:04;;;;;;;6.68;3.42;;;6.30;99.90;;;;;;6095226;23;96253;-78
2023/04/14 00:16:31;;;;;;;6.40;4.15;;;6.20;99.90;;;;;;6070275;23;92524;-78
2023/04/14 00:18:59;;;;;;;8.07;4.30;;;6.20;99.90;;;;;;6068985;23;96654;-78
2023/04/14 00:21:26;;;;;;;10.48;4.13;;;6.10;99.90;;;;;;6069937;23;92913;-78
2023/04/14 00:23:52;;;;;;;8.02;3.83;;;6.00;99.90;;;;;;6095555;23;92444;-78
2023/04/14 00:26:20;;;;;;;12.50;4.15;;;6.00;99.90;;;;;;6069606;23;91711;-78
2023/04/14 00:28:47;;;;;;;6.25;3.60;;;6.00;99.90;;;;;;6068922;23;94279;-78
2023/04/14 00:31:15;;;;;;;9.63;4.13;;;5.90;99.90;;;;;;6045127;23;95588;-78
2023/04/14 00:33:42;;;;;;;9.25;4.10;;;5.90;99.90;;;;;;6094496;23;95205;-78
2023/04/14 00:36:09;;;;;;;11.90;3.55;;;5.90;99.90;;;;;;6069796;23;92456;-78
2023/04/14 00:38:36;;;;;;;8.77;3.53;;;5.80;99.90;;;;;;6069821;23;93297;-78
2023/04/14 00:41:03;;;;;;;9.40;3.50;;;5.80;99.90;;;;;;6069359;23;92899;-78
2023/04/14 00:43:30;;;;;;;7.30;3.60;;;5.80;99.90;;;;;;6069515;23;92367;-78
2023/04/14 00:45:57;;;;;;;8.30;3.65;;;5.80;99.90;;;;;;6069222;23;92491;-78
2023/04/14 00:48:24;;;;;;;9.63;4.00;;;5.80;99.90;;;;;;6045647;23;92435;-78
2023/04/14 00:50:51;;;;;;;8.13;3.95;;;5.80;99.90;;;;;;6021756;23;95656;-78
2023/04/14 00:53:19;;;;;;;10.48;4.10;;;5.80;99.90;;;;;;6095520;23;92882;-78
2023/04/14 00:55:46;;;;;;;7.10;3.15;;;5.70;99.90;;;;;;6095819;23;92394;-78
2023/04/14 00:58:15;;;;;;;8.20;3.40;;;5.70;99.90;;;;;;6067811;23;95643;-78
2023/04/14 01:00:42;;;;;;;11.40;3.35;;;5.70;99.90;;;;;;6044820;23;98012;-78
2023/04/14 01:03:09;;;;;;;8.18;3.35;;;5.70;99.90;;;;;;6044949;23;92405;-78
2023/04/14 01:05:36;;;;;;;9.02;3.25;;;5.70;99.90;;;;;;6045063;23;92410;-78
2023/04/14 01:08:04;;;;;;;5.57;3.00;;;5.70;99.90;;;;;;6069416;23;93191;-78
2023/04/14 01:10:39;;;;;;;5.93;3.28;;;5.70;99.90;;;;;;6095366;23;92879;-78
2023/04/14 01:14:00;;;;;;;8.10;3.90;;;5.70;99.90;;;;;;6045058;23;92479;-78
2023/04/14 01:16:28;;;;;;;11.18;4.68;;;5.80;99.90;;;;;;6034638;23;91872;-78
2023/04/14 01:19:13;;;;;;;10.80;4.88;;;5.70;99.90;;;;;;6064984;23;96027;-78
2023/04/14 01:21:45;;;;;;;8.48;4.25;;;5.70;99.90;;;;;;6069453;23;92658;-78
2023/04/14 01:24:42;;;;;;;11.65;4.85;;;5.80;99.90;;;;;;6067756;23;94770;-78
2023/04/14 01:27:38;;;;;;;5.95;3.78;;;5.80;99.90;;;;;;6044751;23;92580;-78
2023/04/14 01:30:14;;;;;;;7.45;3.60;;;5.80;99.90;;;;;;6068713;23;95762;-78
2023/04/14 01:32:46;;;;;;;7.00;3.80;;;5.80;99.90;;;;;;6069048;23;95276;-78
2023/04/14 01:35:19;;;;;;;8.35;3.47;;;5.80;99.90;;;;;;6044887;23;92439;-78
2023/04/14 01:37:54;;;;;;;9.77;4.40;;;5.80;99.90;;;;;;6070610;23;92413;-78
2023/04/14 01:40:24;;;;;;;7.38;4.20;;;5.90;99.90;;;;;;6046480;23;95461;-78
2023/04/14 01:43:11;;;;;;;9.40;3.78;;;5.80;99.90;;;;;;6094958;23;95786;-78
2023/04/14 01:45:48;;;;;;;10.00;4.57;;;6.00;99.90;;;;;;6070491;23;92754;-78
2023/04/14 01:48:16;;;;;;;9.63;4.55;;;6.00;99.90;;;;;;6070525;23;92733;-78
2023/04/14 01:50:46;;;;;;;11.23;4.40;;;6.00;99.90;;;;;;6068356;23;97892;-78
2023/04/14 01:53:15;;;;;;;15.13;3.88;;;6.00;99.90;;;;;;6069565;23;98174;-78
2023/04/14 01:55:44;;;;;;;4.53;3.63;;;6.00;99.90;;;;;;6070653;23;92724;-78
2023/04/14 01:58:13;;;;;;;6.32;3.58;;;6.00;99.90;;;;;;6096040;23;92464;-78
2023/04/14 02:00:42;;;;;;;8.35;3.65;;;6.10;99.90;;;;;;6045666;23;95801;-78
2023/04/14 02:03:10;;;;;;;9.30;3.70;;;6.10;99.90;;;;;;6069600;23;95482;-78
2023/04/14 02:05:38;;;;;;;8.32;3.97;;;6.10;99.90;;;;;;6070601;23;92471;-78
2023/04/14 02:08:10;;;;;;;4.45;3.05;;;6.20;99.90;;;;;;6096835;23;92044;-78
2023/04/14 02:10:41;;;;;;;8.73;3.40;;;6.20;99.90;;;;;;6070093;23;95799;-78
2023/04/14 02:13:10;;;;;;;7.75;4.10;;;6.20;99.90;;;;;;6069784;23;95567;-78
2023/04/14 02:15:39;;;;;;;8.18;3.70;;;6.30;99.90;;;;;;6044652;23;94812;-78
2023/04/14 02:18:07;;;;;;;10.43;4.03;;;6.30;99.90;;;;;;6096463;23;92815;-78
2023/04/14 02:20:37;;;;;;;6.45;3.83;;;6.30;99.90;;;;;;6069771;23;95665;-78
2023/04/14 02:23:04;;;;;;;13.10;3.58;;;6.40;99.90;;;;;;6096219;23;93092;-78
2023/04/14 02:25:33;;;;;;;7.55;3.40;;;6.40;99.90;;;;;;6069863;23;92360;-78
2023/04/14 02:28:06;;;;;;;10.65;3.47;;;6.50;99.90;;;;;;6096010;23;92440;-78
2023/04/14 02:30:38;;;;;;;3.90;3.17;;;6.60;99.90;;;;;;6096342;23;93140;-78
2023/04/14 02:33:08;;;;;;;5.72;3.42;;;6.60;99.90;;;;;;6046201;23;95582;-78
2023/04/14 02:35:46;;;;;;;5.88;2.95;;;6.60;99.90;;;;;;6070278;23;92502;-78
2023/04/14 02:38:33;;;;;;;5.57;3.08;;;6.70;99.90;;;;;;6070013;23;92406;-78
2023/04/14 02:41:10;;;;;;;6.80;3.17;;;6.70;99.90;;;;;;6068785;23;94857;-78
2023/04/14 02:44:26;;;;;;;7.18;3.10;;;6.70;99.90;;;;;;6045743;23;98348;-78
2023/04/14 02:47:10;;;;;;;7.70;3.47;;;6.80;99.90;;;;;;6066034;23;93015;-78
2023/04/14 02:49:45;;;;;;;5.43;3.10;;;6.80;99.90;;;;;;6046584;23;92477;-78
2023/04/14 02:52:16;;;;;;;8.35;3.33;;;6.80;99.90;;;;;;6069719;23;95355;-78
2023/04/14 02:54:46;;;;;;;7.15;3.47;;;6.90;99.90;;;;;;6069444;23;93813;-78
2023/04/14 02:57:14;;;;;;;8.02;3.88;;;6.90;99.90;;;;;;6069476;23;92484;-78
2023/04/14 02:59:46;;;;;;;11.27;4.40;;;6.90;99.90;;;;;;6046992;23;91609;-78
2023/04/14 03:02:16;;;;;;;7.80;3.92;;;6.90;99.90;;;;;;6069399;23;95483;-78
2023/04/14 03:04:48;;;;;;;8.52;4.53;;;7.00;99.90;;;;;;6070023;23;95119;-78
2023/04/14 03:07:24;;;;;;;11.20;3.78;;;7.00;99.90;;;;;;6045715;23;94938;-78
2023/04/14 03:09:53;;;;;;;8.85;4.00;;;7.00;99.90;;;;;;6069769;23;92501;-78
2023/04/14 03:12:24;;;;;;;7.75;4.03;;;7.10;99.90;;;;;;6045825;23;95699;-78
2023/04/14 03:14:52;;;;;;;5.88;4.18;;;7.10;99.90;;;;;;6069400;23;95115;-78
2023/04/14 03:17:21;;;;;;;6.90;4.00;;;7.10;99.90;;;;;;6069642;23;92368;-78
2023/04/14 03:19:51;;;;;;;4.20;3.45;;;7.20;99.90;;;;;;6046408;23;92919;-78
2023/04/14 03:22:21;;;;;;;5.75;3.88;;;7.10;99.90;;;;;;6069314;23;95703;-78
2023/04/14 03:24:49;;;;;;;7.68;3.85;;;7.20;99.90;;;;;;6069889;23;94908;-78
2023/04/14 03:27:21;;;;;;;5.68;4.20;;;7.20;99.90;;;;;;6045730;23;92515;-78
2023/04/14 03:29:52;;;;;;;5.30;3.67;;;7.30;99.90;;;;;;6069937;23;92425;-78
2023/04/14 03:32:23;;;;;;;6.50;4.05;;;7.30;99.90;;;;;;6067598;23;97733;-78
2023/04/14 03:34:53;;;;;;;6.72;3.72;;;7.30;99.90;;;;;;6045120;23;97393;-78
2023/04/14 03:37:24;;;;;;;8.02;4.00;;;7.30;99.90;;;;;;6069757;23;92436;-78
2023/04/14 03:39:52;;;;;;;4.65;3.40;;;7.30;99.90;;;;;;6045854;23;92482;-78
2023/04/14 03:42:21;;;;;;;9.07;4.35;;;7.10;99.90;;;;;;6045000;23;95714;-78
2023/04/14 03:44:52;;;;;;;7.53;4.38;;;7.10;99.90;;;;;;6069533;23;94513;-78
2023/04/14 03:47:23;;;;;;;5.70;4.03;;;7.00;99.90;;;;;;6069787;23;92386;-78
2023/04/14 03:49:55;;;;;;;7.65;4.57;;;6.90;99.90;;;;;;6070051;23;91735;-78
2023/04/14 03:52:23;;;;;;;6.75;4.20;;;6.90;99.90;;;;;;6069406;23;95588;-78
2023/04/14 03:54:53;;;;;;;7.20;4.47;;;6.80;99.90;;;;;;6069202;23;94989;-78
2023/04/14 03:57:22;;;;;;;9.15;4.32;;;6.70;99.90;;;;;;6068252;23;94802;-78
2023/04/14 03:59:50;;;;;;;9.65;4.30;;;6.70;99.90;;;;;;6045097;23;92555;-78
2023/04/14 04:02:22;;;;;;;6.18;4.45;;;6.60;99.90;;;;;;6069545;23;95893;-78
2023/04/14 04:04:49;;;;;;;7.45;4.72;;;6.60;99.90;;;;;;6069315;23;95908;-78
2023/04/14 04:07:18;;;;;;;14.27;5.15;;;6.50;99.90;;;;;;6069709;23;92490;-78
2023/04/14 04:09:47;;;;;;;9.38;4.38;;;6.50;99.90;;;;;;6095677;23;92401;-78
2023/04/14 04:12:18;;;;;;;5.95;4.35;;;6.40;99.90;;;;;;6045172;23;95784;-77
2023/04/14 04:14:45;;;;;;;9.35;4.32;;;6.30;99.90;;;;;;6096005;23;93722;-78
2023/04/14 04:17:16;;;;;;;9.70;4.82;;;6.30;99.90;;;;;;6069729;23;92403;-78
2023/04/14 04:19:45;;;;;;;9.68;4.97;;;6.30;99.90;;;;;;6069594;23;92967;-78
2023/04/14 04:22:16;;;;;;;6.65;4.45;;;6.20;99.90;;;;;;6067788;23;96883;-78
2023/04/14 04:24:44;;;;;;;5.97;4.57;;;6.10;99.90;;;;;;6045023;23;97672;-78
2023/04/14 04:27:17;;;;;;;7.57;5.05;;;6.10;99.90;;;;;;6069612;23;92458;-78
2023/04/14 04:29:56;;;;;;;9.52;5.22;;;6.00;99.90;;;;;;6069505;23;92440;-78
2023/04/14 04:32:24;;;;;;;9.60;4.40;;;5.90;99.90;;;;;;6045165;23;94344;-78
2023/04/14 04:34:52;;;;;;;6.40;5.30;;;5.90;99.90;;;;;;6069084;23;95361;-78
2023/04/14 04:37:20;;;;;;;5.43;4.05;;;5.90;99.90;;;;;;6021378;23;92410;-78
2023/04/14 04:39:47;;;;;;;7.82;5.47;;;5.80;99.90;;;;;;6069632;23;91770;-78
2023/04/14 04:42:16;;;;;;;9.60;5.50;;;5.80;99.90;;;;;;6069247;23;95249;-78
2023/04/14 04:44:43;;;;;;;8.50;5.57;;;5.80;99.90;;;;;;6095343;23;92906;-78
2023/04/14 04:47:11;;;;;;;11.57;5.18;;;5.80;99.90;;;;;;6068051;23;94698;-78
2023/04/14 04:49:38;;;;;;;10.57;4.95;;;5.80;99.90;;;;;;6069060;23;92443;-78
2023/04/14 04:52:05;;;;;;;8.85;5.22;;;5.90;99.90;;;;;;6069450;23;93261;-77
2023/04/14 04:54:32;;;;;;;12.00;5.45;;;5.90;99.90;;;;;;6068858;23;95533;-77
2023/04/14 04:56:59;;;;;;;11.15;5.32;;;6.00;99.90;;;;;;6095810;23;92447;-78
2023/04/14 04:59:26;;;;;;;8.52;4.75;;;6.10;99.90;;;;;;6045558;23;92398;-78
2023/04/14 05:01:53;;;;;;;11.35;5.95;;;6.20;99.90;;;;;;6094896;23;101504;-78
2023/04/14 05:04:20;;;;;;;13.95;6.35;;;6.30;99.90;;;;;;6069515;23;95486;-78
2023/04/14 05:06:47;;;;;;;10.80;5.28;;;6.40;99.90;;;;;;6069069;23;92544;-78
2023/04/14 05:09:14;;;;;;;9.70;5.80;;;6.50;99.90;;;;;;6069835;23;92409;-78
2023/04/14 05:11:41;;;;;;;10.07;5.03;;;6.60;99.90;;;;;;6066659;23;98005;-78
2023/04/14 05:14:08;;;;;;;8.93;5.50;;;6.70;99.90;;;;;;6044698;23;97743;-78
2023/04/14 05:16:35;;;;;;;10.38;5.05;;;6.70;99.90;;;;;;6095425;23;92386;-78
2023/04/14 05:19:02;;;;;;;8.23;5.22;;;6.80;99.90;;;;;;6045520;23;92519;-78
2023/04/14 05:21:29;;;;;;;9.35;5.40;;;6.90;99.90;;;;;;6069569;23;93342;-78
2023/04/14 05:23:57;;;;;;;10.75;5.63;;;7.00;99.90;;;;;;6069317;23;92975;-78
2023/04/14 05:26:24;;;;;;;9.07;5.55;;;7.10;99.90;;;;;;6069261;23;92384;-78
2023/04/14 05:28:54;;;;;;;7.38;4.75;;;7.20;99.90;;;;;;6022241;23;92757;-78
2023/04/14 05:31:21;;;;;;;10.60;5.03;;;7.50;99.90;;;;;;6068891;23;94278;-78
2023/04/14 05:33:48;;;;;;;7.65;4.75;;;7.80;99.90;;;;;;6094310;23;106073;-78
2023/04/14 05:36:15;;;;;;;7.10;4.38;;;8.30;99.90;;;;;;6094103;23;94807;-78
2023/04/14 05:38:42;;;;;;;6.65;4.68;;;8.80;99.90;;;;;;6068760;23;92456;-78
2023/04/14 05:41:10;;;;;;;8.25;5.45;;;9.50;99.90;;;;;;6069308;23;93371;-78
2023/04/14 05:43:37;;;;;;;9.18;4.40;;;10.10;99.90;;;;;;6094670;23;94966;-78
2023/04/14 05:46:04;;;;;;;8.20;4.40;;;10.50;99.90;;;;;;6044760;23;92630;-78
2023/04/14 05:48:32;;;;;;;7.18;4.45;;;10.70;99.90;;;;;;6069566;23;92540;-78
2023/04/14 05:50:59;;;;;;;6.78;4.03;;;10.80;99.90;;;;;;6068451;23;95728;-78
2023/04/14 05:53:26;;;;;;;12.05;4.90;;;10.70;99.90;;;;;;6069530;23;93122;-78
2023/04/14 05:55:53;;;;;;;18.35;4.22;;;10.70;99.90;;;;;;6068673;23;92482;-78
2023/04/14 05:58:20;;;;;;;7.40;4.18;;;10.80;99.90;;;;;;6069303;23;92540;-78
2023/04/14 06:00:47;;;;;;;5.68;3.97;;;11.00;99.90;;;;;;6067314;23;96235;-78
2023/04/14 06:03:15;;;;;;;11.20;5.20;;;11.10;99.90;;;;;;6095033;23;95369;-78
2023/04/14 06:05:42;;;;;;;7.43;4.60;;;11.10;99.90;;;;;;6069273;23;92425;-78
2023/04/14 06:08:09;;;;;;;8.85;4.50;;;11.10;99.90;;;;;;6045171;23;92838;-78
2023/04/14 06:10:36;;;;;;;6.07;4.40;;;11.00;99.90;;;;;;6094869;23;93184;-78
2023/04/14 06:13:03;;;;;;;5.85;4.28;;;11.00;99.90;;;;;;6094581;23;92863;-78
2023/04/14 06:15:30;;;;;;;7.90;4.18;;;11.10;99.90;;;;;;6094960;23;92288;-78
2023/04/14 06:17:57;;;;;;;7.20;3.90;;;11.20;99.90;;;;;;6095161;23;91661;-78
2023/04/14 06:20:24;;;;;;;7.63;4.63;;;11.50;99.90;;;;;;6068332;23;102492;-78
2023/04/14 06:22:51;;;;;;;6.20;4.18;;;11.70;99.90;;;;;;6069267;23;92857;-77
2023/04/14 06:25:18;;;;;;;8.13;4.15;;;11.80;99.90;;;;;;6095021;23;94839;-78
2023/04/14 06:27:45;;;;;;;9.27;4.15;;;12.00;99.90;;;;;;6064857;23;92410;-77
2023/04/14 06:30:15;;;;;;;8.75;4.18;;;12.20;99.90;;;;;;6089571;23;93203;-77
2023/04/14 06:32:42;;;;;;;7.38;4.30;;;12.50;99.90;;;;;;6065205;23;92887;-78
2023/04/14 06:35:09;;;;;;;6.25;3.90;;;12.70;99.90;;;;;;6065170;23;92465;-77
2023/04/14 06:37:44;;;;;;;7.75;3.67;;;12.90;99.90;;;;;;6065220;23;92439;-77
2023/04/14 06:40:12;;;;;;;7.82;3.45;;;13.30;99.90;;;;;;6066680;23;93106;-77
2023/04/14 06:42:39;;;;;;;6.60;3.90;;;13.70;99.20;;;;;;6065673;23;92916;-78
2023/04/14 06:45:06;;;;;;;7.35;4.05;;;14.10;98.60;;;;;;6066639;23;92408;-78
2023/04/14 06:47:33;;;;;;;7.20;3.45;;;14.60;98.00;;;;;;6065382;23;92571;-77
2023/04/14 06:50:01;;;;;;;6.05;3.63;;;15.00;97.30;;;;;;6063052;23;98336;-77
2023/04/14 06:52:28;;;;;;;5.68;3.78;;;15.30;97.10;;;;;;6066557;23;96557;-78
2023/04/14 06:54:55;;;;;;;7.75;3.72;;;15.50;96.70;;;;;;6089326;23;92483;-78
2023/04/14 06:57:22;;;;;;;4.68;3.03;;;15.70;96.40;;;;;;6066793;23;92425;-78
2023/04/14 06:59:50;;;;;;;7.65;3.10;;;15.90;96.00;;;;;;6066337;23;93240;-78
2023/04/14 07:02:16;;;;;;;6.28;3.33;;;16.20;95.40;;;;;;6066737;23;92934;-78
2023/04/14 07:04:44;;;;;;;5.15;3.42;;;16.30;95.00;;;;;;6066888;23;92309;-78
2023/04/14 07:07:13;;;;;;;5.95;3.08;;;16.40;94.70;;;;;;6064908;23;91803;-78
2023/04/14 07:09:43;;;;;;;5.57;3.10;;;16.60;94.60;;;;;;6066477;23;93149;-78
2023/04/14 07:12:14;;;;;;;6.43;3.58;;;17.00;93.80;;;;;;6065007;23;92883;-78
2023/04/14 07:14:42;;;;;;;7.30;3.50;;;17.50;93.00;;;;;;6065315;23;94861;-78
2023/04/14 07:17:09;;;;;;;6.03;3.83;;;17.70;92.40;;;;;;6064735;23;92346;-78
2023/04/14 07:19:36;;;;;;;5.95;3.30;;;17.90;91.40;;;;;;6089418;23;93058;-78
2023/04/14 07:22:03;;;;;;;5.85;3.33;;;17.90;90.90;;;;;;6089260;23;93164;-78
2023/04/14 07:24:30;;;;;;;7.07;3.45;;;18.00;90.00;;;;;;6066409;23;95910;-78
2023/04/14 07:26:57;;;;;;;8.77;3.88;;;18.10;89.40;;;;;;6064487;23;92439;-78
2023/04/14 07:29:26;;;;;;;7.43;3.75;;;18.10;89.70;;;;;;6089372;23;93281;-76
2023/04/14 07:31:52;;;;;;;10.60;2.97;;;18.30;88.80;;;;;;6064692;23;96038;-76
2023/04/14 07:34:20;;;;;;;8.95;3.15;;;18.70;86.70;;;;;;6064504;23;92454;-76
2023/04/14 07:36:47;;;;;;;6.72;3.13;;;19.00;85.20;;;;;;6064855;23;92862;-76
2023/04/14 07:39:14;;;;;;;6.25;2.80;;;19.10;83.50;;;;;;6064596;23;95661;-76
2023/04/14 07:41:41;;;;;;;7.75;2.80;;;19.20;81.80;;;;;;6066088;23;96997;-76
2023/04/14 07:44:08;;;;;;;7.30;2.95;;;19.40;82.20;;;;;;6066453;23;92984;-76
2023/04/14 07:46:35;;;;;;;8.65;3.05;;;19.30;80.70;;;;;;6066663;23;92387;-76
2023/04/14 07:49:01;;;;;;;10.48;3.30;;;19.40;80.30;;;;;;6088923;23;93017;-76
2023/04/14 07:51:29;;;;;;;7.55;2.80;;;19.30;80.20;;;;;;6064655;23;97195;-76
2023/04/14 07:53:56;;;;;;;8.65;2.42;;;19.40;80.10;;;;;;6064404;23;92480;-76
2023/04/14 07:56:23;;;;;;;5.55;2.05;;;19.60;79.60;;;;;;6066951;23;92192;-76
2023/04/14 07:58:50;;;;;;;5.95;2.17;;;19.90;75.70;;;;;;6040466;23;95602;-76
2023/04/14 08:01:17;;;;;;;9.35;2.83;;;20.30;72.50;;;;;;6089032;23;92926;-76
2023/04/14 08:03:44;;;;;;;6.72;2.90;;;20.70;72.00;;;;;;6063324;23;94825;-76
2023/04/14 08:06:11;;;;;;;7.55;2.63;;;21.30;70.00;;;;;;6040483;23;92838;-77
2023/04/14 08:08:39;;;;;;;5.32;2.53;;;21.90;67.60;;;;;;6066260;23;93104;-76
2023/04/14 08:11:06;;;;;;;6.32;3.22;;;22.50;66.20;;;;;;6064298;23;95604;-76
2023/04/14 08:13:33;;;;;;;4.25;2.67;;;23.20;63.80;;;;;;6064742;23;92377;-76
2023/04/14 08:16:00;;;;;;;4.32;2.45;;;23.60;62.60;;;;;;6040341;23;92902;-76
2023/04/14 08:18:27;;;;;;;3.67;2.47;;;23.80;61.10;;;;;;6066300;23;93132;-76
2023/04/14 08:20:55;;;;;;;4.28;2.60;;;23.90;58.40;;;;;;6064939;23;95584;-76
2023/04/14 08:23:23;;;;;;;5.30;2.42;;;24.20;58.70;;;;;;6064643;23;92375;-77
2023/04/14 08:25:50;;;;;;;4.32;2.30;;;24.40;56.10;;;;;;6066007;23;97602;-76
2023/04/14 08:28:17;;;;;;;5.28;2.25;;;24.70;54.80;;;;;;6085961;23;95523;-77
2023/04/14 08:30:44;;;;;;;5.03;2.40;;;24.90;54.70;;;;;;6095572;23;95263;-77
2023/04/14 08:33:11;;;;;;;4.75;2.70;;;25.00;54.20;;;;;;6045040;23;92508;-77
2023/04/14 08:35:38;;;;;;;8.27;2.47;;;25.00;52.90;;;;;;6095660;23;92391;-76
2023/04/14 08:38:08;;;;;;;4.47;2.40;;;24.90;52.40;;;;;;6069192;23;95908;-76
2023/04/14 08:40:41;;;;;;;4.88;2.40;;;24.70;51.40;;;;;;6045157;23;95907;-77
2023/04/14 08:43:09;;;;;;;3.88;1.63;;;24.30;52.00;;;;;;6069582;23;92914;-77
2023/04/14 08:45:37;;;;;;;3.97;1.65;;;23.80;52.50;;;;;;6095368;23;91653;-77
2023/04/14 08:48:05;;;;;;;4.63;1.60;;;23.50;52.80;;;;;;6069429;23;93211;-76
2023/04/14 08:50:36;;;;;;;5.57;1.98;;;23.40;52.30;;;;;;6095455;23;93015;-77
2023/04/14 08:53:07;;;;;;;3.45;1.80;;;22.80;52.30;;;;;;6094117;23;94698;-77
2023/04/14 08:55:39;;;;;;;5.07;1.35;;;22.00;52.80;;;;;;6095707;23;92479;-77
2023/04/14 08:58:09;;;;;;;4.78;1.73;;;21.30;53.90;;;;;;6095295;23;93137;-77
2023/04/14 09:00:38;;;;;;;5.47;1.48;;;20.30;56.40;;;;;;6095582;23;92819;-77
2023/04/14 09:03:07;;;;;;;5.30;1.63;;;19.50;58.60;;;;;;6069128;23;92302;-77
2023/04/14 09:05:35;;;;;;;7.03;2.05;;;19.00;59.60;;;;;;6069178;23;92886;-77
2023/04/14 09:08:03;;;;;;;7.03;2.10;;;18.30;61.30;;;;;;6095344;23;93425;-77
2023/04/14 09:10:30;;;;;;;4.60;2.03;;;18.00;62.20;;;;;;6095725;23;96481;-77
2023/04/14 09:12:58;;;;;;;4.55;1.85;;;17.70;64.70;;;;;;6069352;23;92930;-77
2023/04/14 09:15:27;;;;;;;5.72;2.38;;;17.30;65.50;;;;;;6069366;23;92484;-77
2023/04/14 09:17:55;;;;;;;8.65;3.10;;;17.00;67.50;;;;;;6068588;23;95509;-77
2023/04/14 09:20:23;;;;;;;5.07;2.65;;;16.70;68.00;;;;;;6069024;23;95276;-77
2023/04/14 09:23:03;;;;;;;4.78;2.38;;;16.50;68.60;;;;;;6051113;23;92363;-76
2023/04/14 09:25:31;;;;;;;5.18;2.95;;;16.30;70.40;;;;;;6068709;23;92537;-77
2023/04/14 09:27:58;;;;;;;6.57;2.72;;;16.20;70.90;;;;;;6044419;23;95954;-77
2023/04/14 09:30:25;;;;;;;10.40;2.85;;;16.10;72.20;;;;;;6068732;23;95510;-77
2023/04/14 09:32:55;;;;;;;4.45;2.95;;;15.90;73.10;;;;;;6095527;23;92392;-77
2023/04/14 09:35:41;;;;;;;7.32;3.30;;;15.80;74.20;;;;;;6069528;23;91990;-77
2023/04/14 09:38:08;;;;;;;8.10;3.25;;;15.60;74.10;;;;;;6068800;23;95569;-77
2023/04/14 09:40:37;;;;;;;6.47;3.00;;;15.30;74.90;;;;;;6044430;23;104929;-76
2023/04/14 09:43:05;;;;;;;8.38;3.22;;;15.40;76.10;;;;;;6043824;23;94805;-77
2023/04/14 09:45:44;;;;;;;8.43;3.75;;;15.40;76.10;;;;;;6095288;23;92627;-77
2023/04/14 09:48:11;;;;;;;4.78;3.10;;;15.50;76.80;;;;;;6094871;23;94076;-77
2023/04/14 09:51:12;;;;;;;7.80;3.33;;;15.50;77.40;;;;;;6069633;23;92947;-77
2023/04/14 09:53:40;;;;;;;10.43;3.35;;;15.50;77.50;;;;;;6091991;23;92998;-77
2023/04/14 09:56:09;;;;;;;4.65;2.60;;;15.40;77.70;;;;;;6069131;23;92484;-76
2023/04/14 09:58:41;;;;;;;5.30;2.88;;;15.30;78.70;;;;;;6069949;23;93747;-77
2023/04/14 10:01:19;;;;;;;4.95;3.20;;;15.30;79.90;;;;;;6096438;23;92968;-77
2023/04/14 10:03:48;;;;;;;6.78;3.33;;;15.40;79.10;;;;;;6096434;23;92414;-77
2023/04/14 10:06:21;;;;;;;7.43;3.67;;;15.40;79.10;;;;;;6096248;23;92460;-77
2023/04/14 10:08:50;;;;;;;7.28;3.22;;;15.40;79.30;;;;;;6094680;23;95607;-77
2023/04/14 10:11:23;;;;;;;5.82;3.85;;;15.40;78.60;;;;;;6096021;23;94133;-77
2023/04/14 10:13:53;;;;;;;9.23;4.13;;;15.50;80.00;;;;;;6070803;23;92543;-77
2023/04/14 10:16:21;;;;;;;9.25;4.53;;;15.50;79.40;;;;;;6096007;23;92336;-76
2023/04/14 10:18:50;;;;;;;10.48;3.65;;;15.50;79.90;;;;;;6069760;23;94419;-77
2023/04/14 10:21:20;;;;;;;6.65;4.20;;;15.50;79.80;;;;;;6070069;23;92884;-77
2023/04/14 10:23:48;;;;;;;10.30;4.00;;;15.50;79.70;;;;;;6096465;23;92312;-77
2023/04/14 10:26:15;;;;;;;8.27;3.97;;;15.50;80.90;;;;;;6070688;23;91724;-77
2023/04/14 10:28:44;;;;;;;8.55;3.88;;;15.50;81.00;;;;;;6095330;23;101651;-77
2023/04/14 10:31:16;;;;;;;7.55;3.90;;;15.60;80.20;;;;;;6045659;23;94470;-77
2023/04/14 10:33:43;;;;;;;6.88;3.67;;;15.60;80.00;;;;;;6068844;23;94765;-77
2023/04/14 10:36:10;;;;;;;10.68;4.00;;;15.50;79.50;;;;;;6070296;23;92355;-77
2023/04/14 10:38:38;;;;;;;9.52;3.92;;;15.50;78.90;;;;;;6045833;23;92411;-77
2023/04/14 10:41:06;;;;;;;6.57;3.53;;;15.60;80.90;;;;;;6096088;23;92686;-77
2023/04/14 10:43:35;;;;;;;6.93;4.05;;;15.70;81.40;;;;;;6070360;23;92397;-77
2023/04/14 10:46:04;;;;;;;8.20;4.10;;;15.70;79.20;;;;;;6096324;23;92619;-77
2023/04/14 10:48:38;;;;;;;9.05;4.20;;;15.70;79.90;;;;;;6095712;23;93222;-77
2023/04/14 10:51:08;;;;;;;8.32;3.90;;;15.70;80.50;;;;;;6096603;23;92715;-77
2023/04/14 10:53:36;;;;;;;9.25;3.15;;;15.80;81.70;;;;;;6070179;23;92421;-77
2023/04/14 10:56:05;;;;;;;6.30;3.80;;;15.90;80.70;;;;;;6045641;23;92497;-77
2023/04/14 10:58:34;;;;;;;8.18;3.85;;;16.00;80.80;;;;;;6094217;23;95812;-77
2023/04/14 11:01:25;;;;;;;7.82;3.85;;;16.20;81.90;;;;;;6045326;23;97775;-77
2023/04/14 11:03:54;;;;;;;5.72;3.55;;;16.40;81.40;;;;;;6070180;23;92421;-77
2023/04/14 11:06:46;;;;;;;4.63;2.40;;;16.40;81.70;;;;;;6070406;23;92888;-77
2023/04/14 11:09:33;;;;;;;6.30;2.90;;;16.60;78.40;;;;;;6069254;23;100205;-77
2023/04/14 11:12:23;;;;;;;7.13;3.08;;;16.90;77.70;;;;;;6096086;23;92357;-77
2023/04/14 11:15:00;;;;;;;8.23;3.28;;;17.20;79.40;;;;;;6070247;23;92476;-77
2023/04/14 11:17:31;;;;;;;5.38;3.20;;;17.40;77.20;;;;;;6070135;23;91724;-76
2023/04/14 11:19:59;;;;;;;6.72;2.78;;;17.30;75.50;;;;;;6046650;23;94307;-77
2023/04/14 11:22:44;;;;;;;8.60;3.47;;;17.20;73.30;;;;;;6069864;23;92908;-77
2023/04/14 11:25:16;;;;;;;7.15;2.67;;;17.20;74.10;;;;;;6045475;23;94822;-77
2023/04/14 11:27:44;;;;;;;5.45;2.40;;;17.20;73.50;;;;;;6045238;23;93093;-77
2023/04/14 11:30:13;;;;;;;6.45;2.65;;;17.30;74.00;;;;;;6046199;23;94055;-77
2023/04/14 11:32:59;;;;;;;5.38;2.35;;;17.50;73.20;;;;;;6095666;23;92751;-76
2023/04/14 11:35:27;;;;;;;5.93;2.88;;;17.60;73.10;;;;;;6065706;23;92869;-76
2023/04/14 11:37:59;;;;;;;7.47;3.05;;;17.80;74.30;;;;;;6045923;23;92463;-76
2023/04/14 11:40:26;;;;;;;4.53;3.13;;;17.90;72.40;;;;;;6095605;23;93272;-76
2023/04/14 11:42:57;;;;;;;7.03;3.13;;;18.00;71.70;;;;;;6096474;23;92933;-76
2023/04/14 11:45:29;;;;;;;5.97;3.10;;;18.30;72.40;;;;;;6069880;23;92393;-76
2023/04/14 11:48:04;;;;;;;5.22;2.97;;;18.30;70.80;;;;;;6070182;23;92480;-76
2023/04/14 11:50:37;;;;;;;6.20;3.20;;;18.50;72.00;;;;;;6067752;23;101304;-76
2023/04/14 11:53:16;;;;;;;9.33;2.90;;;18.60;72.60;;;;;;6095725;23;95081;-76
2023/04/14 11:55:45;;;;;;;4.45;1.98;;;18.60;70.80;;;;;;6095744;23;92294;-76
2023/04/14 11:58:14;;;;;;;8.00;2.80;;;18.60;69.20;;;;;;6096001;23;92412;-76
2023/04/14 12:00:42;;;;;;;4.75;3.05;;;18.60;69.70;;;;;;6069678;23;93094;-76
2023/04/14 12:03:09;;;;;;;5.50;2.67;;;18.30;67.60;;;;;;6095886;23;92750;-76
2023/04/14 12:05:36;;;;;;;6.75;3.13;;;18.10;68.40;;;;;;6070097;23;92463;-76
2023/04/14 12:08:08;;;;;;;5.30;3.25;;;18.20;69.50;;;;;;6045834;23;91721;-76
2023/04/14 12:10:40;;;;;;;4.95;3.60;;;18.30;70.70;;;;;;6069983;23;93274;-76
2023/04/14 12:13:09;;;;;;;7.40;3.58;;;18.20;68.20;;;;;;6045299;23;95649;-76
2023/04/14 12:15:38;;;;;;;5.82;3.58;;;18.30;70.60;;;;;;6094119;23;94692;-76
2023/04/14 12:18:12;;;;;;;8.55;3.92;;;18.30;69.50;;;;;;6069400;23;92445;-76
2023/04/14 12:20:51;;;;;;;5.78;3.30;;;18.30;69.00;;;;;;6069342;23;95828;-76
2023/04/14 12:23:18;;;;;;;9.43;3.42;;;18.30;68.00;;;;;;6069488;23;95478;-76
2023/04/14 12:25:48;;;;;;;6.47;3.45;;;18.20;69.00;;;;;;6069731;23;92444;-76
2023/04/14 12:28:28;;;;;;;6.30;2.85;;;18.30;66.50;;;;;;6095583;23;92398;-76
2023/04/14 12:31:01;;;;;;;5.72;3.30;;;18.50;69.10;;;;;;6095752;23;93695;-76
2023/04/14 12:33:29;;;;;;;7.50;3.58;;;18.50;67.60;;;;;;6069991;23;92850;-76
2023/04/14 12:36:02;;;;;;;6.63;3.95;;;18.50;68.80;;;;;;6095362;23;98940;-76
2023/04/14 12:38:29;;;;;;;7.38;4.00;;;18.70;69.90;;;;;;6095808;23;92342;-76
2023/04/14 12:40:56;;;;;;;8.27;4.10;;;18.90;69.30;;;;;;6093858;23;97780;-76
2023/04/14 12:43:27;;;;;;;8.13;4.55;;;19.20;68.90;;;;;;6044980;23;97915;-76
2023/04/14 12:45:54;;;;;;;6.32;3.97;;;19.40;68.50;;;;;;6069420;23;92403;-76
2023/04/14 12:48:21;;;;;;;7.13;3.92;;;19.60;68.70;;;;;;6095752;23;92350;-76
2023/04/14 12:50:48;;;;;;;6.82;3.83;;;20.00;68.00;;;;;;6095351;23;93189;-76
2023/04/14 12:53:23;;;;;;;6.10;3.40;;;20.30;67.40;;;;;;6045317;23;95637;-76
2023/04/14 12:56:06;;;;;;;6.38;3.40;;;20.40;67.60;;;;;;6045258;23;92509;-76
2023/04/14 12:58:37;;;;;;;6.55;4.15;;;20.50;64.80;;;;;;6096141;23;91699;-77
2023/04/14 13:01:09;;;;;;;14.88;4.53;;;20.30;65.20;;;;;;6095469;23;93546;-76
2023/04/14 13:03:49;;;;;;;7.88;4.65;;;20.00;65.50;;;;;;6069089;23;95550;-76
2023/04/14 13:06:17;;;;;;;7.45;3.85;;;20.10;66.70;;;;;;6068880;23;94823;-76